CGT weather

Chinguetti Airport
Chinguetti, Adrar Region, Mauritania

Public forecast

Using degrees Celsius for public forecast. Weather courtesy of forecast.io.

METAR (pilot weather report)

Closest report is Atar International Airport, 36.3 nm (67.2 km) W. Retrieved 2019/05/26 09:00 UTC (2 hours ago):

GQPA 260900Z 04010KT 8000 NSC 32/11 Q1013

TAF (pilot weather forecast)

Closest forecast is Nouakchott–Oumtounsy International Airport, 241.4 nm (447.1 km) WSW. Retrieved 2019/05/26 06:00 UTC (5 hours ago):

TAF GQNO 260500Z 2606/2712 30012KT 5000 BR FEW006 BECMG 2607/2609 7000 NSW BECMG 2700/2703 2000 BR BKN004 BECMG 2707/2709 7000 NSW NSC